Time;durP1;ratioP1;P1;durP2;ratioP2;P2;SDS_P1;SDS_P2;PMS_P1;PMS_P2;Temp;Humidity;BMP_temperature;BMP_pressure;BME280_temperature;BME280_humidity;BME280_pressure;Samples;Min_cycle;Max_cycle;Signal;HPM_P1;HPM_P2
2022/05/21 00:00:56;;;;;;;1999.90;999.90;;;14.50;99.90;;;;;;4929515;29;20479;-83
2022/05/21 00:03:22;;;;;;;1999.90;999.90;;;14.40;99.90;;;;;;4915790;29;20156;-83
2022/05/21 00:05:49;;;;;;;1999.90;999.90;;;14.40;99.90;;;;;;4911208;29;20583;-84
2022/05/21 00:08:15;;;;;;;1999.90;999.90;;;14.40;99.90;;;;;;4914534;29;20056;-76
2022/05/21 00:10:42;;;;;;;1999.90;999.90;;;14.30;99.90;;;;;;4911423;29;20395;-76
2022/05/21 00:13:08;;;;;;;1999.90;999.90;;;14.30;99.90;;;;;;4923586;29;20407;-83
2022/05/21 00:15:35;;;;;;;1999.90;999.90;;;14.30;99.90;;;;;;4919236;29;20492;-76
2022/05/21 00:18:02;;;;;;;1999.90;999.90;;;14.30;99.90;;;;;;4919418;29;20042;-75
2022/05/21 00:23:24;;;;;;;1999.90;999.90;;;14.20;99.90;;;;;;4919210;29;20031;-76
2022/05/21 00:25:56;;;;;;;1999.90;999.90;;;14.20;99.90;;;;;;4917872;29;20125;-84
2022/05/21 00:28:22;;;;;;;1999.90;999.90;;;14.10;99.90;;;;;;4918800;29;20511;-75
2022/05/21 00:30:48;;;;;;;1999.90;999.90;;;14.10;99.90;;;;;;4918926;29;20498;-83
2022/05/21 00:33:14;;;;;;;1999.90;999.90;;;14.10;99.90;;;;;;4919056;29;20032;-76
2022/05/21 00:35:40;;;;;;;1999.90;999.90;;;14.10;99.90;;;;;;4918892;29;20075;-75
2022/05/21 00:38:06;;;;;;;1999.90;999.90;;;14.00;99.90;;;;;;4925694;29;20443;-84
2022/05/21 00:40:32;;;;;;;1999.90;999.90;;;14.00;99.90;;;;;;4918119;29;20030;-84
2022/05/21 00:42:57;;;;;;;1999.90;999.90;;;14.00;99.90;;;;;;4919105;29;20034;-84
2022/05/21 00:45:24;;;;;;;1999.90;999.90;;;13.90;99.90;;;;;;4918434;29;20032;-84
2022/05/21 00:47:52;;;;;;;1999.90;999.90;;;13.90;99.90;;;;;;4934080;29;20458;-84
2022/05/21 00:50:22;;;;;;;1999.90;999.90;;;13.90;99.90;;;;;;4921633;29;20051;-76
2022/05/21 00:52:50;;;;;;;1999.90;999.90;;;13.90;99.90;;;;;;4918058;29;20050;-83
2022/05/21 00:55:29;;;;;;;1999.90;999.90;;;13.90;99.90;;;;;;4918644;29;20045;-75
2022/05/21 01:00:44;;;;;;;1999.90;999.90;;;13.80;99.90;;;;;;4918073;29;20087;-75
2022/05/21 01:03:12;;;;;;;1999.90;999.90;;;13.80;99.90;;;;;;4918197;29;20447;-84
2022/05/21 01:05:39;;;;;;;1999.90;999.90;;;13.80;99.90;;;;;;4917142;29;20484;-75
2022/05/21 01:08:06;;;;;;;1999.90;999.90;;;13.80;99.90;;;;;;4917558;29;20027;-76
2022/05/21 01:10:37;;;;;;;1999.90;999.90;;;13.80;99.90;;;;;;4918249;29;20020;-76
2022/05/21 01:13:07;;;;;;;1999.90;999.90;;;13.70;99.90;;;;;;4921590;29;20126;-77
2022/05/21 01:15:37;;;;;;;1999.90;999.90;;;13.70;99.90;;;;;;4916878;29;20510;-84
2022/05/21 01:18:06;;;;;;;1999.90;999.90;;;13.60;99.90;;;;;;4916519;29;20036;-75
2022/05/21 01:20:48;;;;;;;1999.90;999.90;;;13.60;99.90;;;;;;4916399;29;20036;-75
2022/05/21 01:23:14;;;;;;;1999.90;999.90;;;13.50;99.90;;;;;;4906641;29;20028;-84
2022/05/21 01:25:42;;;;;;;1999.90;999.90;;;13.50;99.90;;;;;;4917828;29;20036;-75
2022/05/21 01:28:13;;;;;;;1999.90;999.90;;;13.50;99.90;;;;;;4915642;29;20024;-76
2022/05/21 01:30:45;;;;;;;1999.90;999.90;;;13.50;99.90;;;;;;4916392;29;20087;-75
2022/05/21 01:33:13;;;;;;;1999.90;999.90;;;13.50;99.90;;;;;;4917857;29;20111;-75
2022/05/21 01:35:41;;;;;;;1999.90;999.90;;;13.50;99.90;;;;;;4916600;29;20043;-75
2022/05/21 01:38:08;;;;;;;1999.90;999.90;;;13.50;99.90;;;;;;4923534;29;20451;-84
2022/05/21 01:40:34;;;;;;;1999.90;999.90;;;13.50;99.90;;;;;;4921533;29;20032;-75
2022/05/21 01:45:45;;;;;;;1999.90;999.90;;;13.40;99.90;;;;;;4920100;29;20035;-76
2022/05/21 01:48:11;;;;;;;1999.90;999.90;;;13.50;99.90;;;;;;4928825;29;20023;-75
2022/05/21 01:50:38;;;;;;;1999.90;999.90;;;13.50;99.90;;;;;;4916298;29;20120;-84
2022/05/21 01:53:04;;;;;;;1999.90;999.90;;;13.40;99.90;;;;;;4917599;29;20117;-76
2022/05/21 01:55:30;;;;;;;1999.90;999.90;;;13.40;99.90;;;;;;4915973;29;20055;-76
2022/05/21 01:57:56;;;;;;;1999.90;999.90;;;13.40;99.90;;;;;;4916953;29;20036;-84
2022/05/21 02:00:22;;;;;;;1999.90;999.90;;;13.40;99.90;;;;;;4917107;29;20032;-75
2022/05/21 02:02:48;;;;;;;1999.90;999.90;;;13.30;99.90;;;;;;4917617;29;20020;-75
2022/05/21 02:05:14;;;;;;;1999.90;999.90;;;13.40;99.90;;;;;;4909725;29;20108;-83
2022/05/21 02:07:40;;;;;;;1999.90;999.90;;;13.30;99.90;;;;;;4917870;29;20031;-75
2022/05/21 02:10:07;;;;;;;1999.90;999.90;;;13.30;99.90;;;;;;4917354;29;20051;-75
2022/05/21 02:12:33;;;;;;;1999.90;999.90;;;13.30;99.90;;;;;;4923195;29;20026;-75
2022/05/21 02:14:59;;;;;;;1999.90;999.90;;;13.30;99.90;;;;;;4917197;29;20419;-75
2022/05/21 02:17:25;;;;;;;1999.90;999.90;;;13.30;99.90;;;;;;4915879;29;20039;-75
2022/05/21 02:19:51;;;;;;;1999.90;999.90;;;13.20;99.90;;;;;;4911069;29;20032;-75
2022/05/21 02:22:17;;;;;;;1999.90;999.90;;;13.30;99.90;;;;;;4910379;29;20016;-75
2022/05/21 02:24:43;;;;;;;1999.90;999.90;;;13.30;99.90;;;;;;4916984;29;20032;-75
2022/05/21 02:27:13;;;;;;;1999.90;999.90;;;13.30;99.90;;;;;;4916282;29;20032;-75
2022/05/21 02:29:40;;;;;;;1999.90;999.90;;;13.20;99.90;;;;;;4916382;29;20036;-75
2022/05/21 02:32:06;;;;;;;1999.90;999.90;;;13.20;99.90;;;;;;4916727;29;20076;-75
2022/05/21 02:34:33;;;;;;;1999.90;999.90;;;13.30;99.90;;;;;;4916897;29;20036;-75
2022/05/21 02:39:43;;;;;;;1999.90;999.90;;;13.30;99.90;;;;;;4906678;29;20105;-75
2022/05/21 02:42:43;;;;;;;1999.90;999.90;;;13.30;99.90;;;;;;4916755;29;20028;-75
2022/05/21 02:44:56;;;;;;;1999.90;999.90;;;13.20;99.90;;;;;;4909134;29;20025;-75
2022/05/21 02:47:23;;;;;;;1999.90;999.90;;;13.20;99.90;;;;;;4923796;29;20039;-75
2022/05/21 02:49:49;;;;;;;1999.90;999.90;;;13.20;99.90;;;;;;4923996;29;20083;-78
2022/05/21 02:52:15;;;;;;;1999.90;999.90;;;13.20;99.90;;;;;;4910741;29;20029;-75
2022/05/21 02:54:41;;;;;;;1999.90;999.90;;;13.20;99.90;;;;;;4910255;29;20036;-75
2022/05/21 02:57:11;;;;;;;1999.90;999.90;;;13.20;99.90;;;;;;4921807;29;20107;-82
2022/05/21 02:59:37;;;;;;;1999.90;999.90;;;13.20;99.90;;;;;;4915259;29;20172;-75
2022/05/21 03:02:04;;;;;;;1999.90;999.90;;;13.10;99.90;;;;;;4927389;29;20360;-75
2022/05/21 03:04:30;;;;;;;1999.90;999.90;;;13.10;99.90;;;;;;4909107;29;20483;-83
2022/05/21 03:06:56;;;;;;;1999.90;999.90;;;13.20;99.90;;;;;;4916512;29;20403;-84
2022/05/21 03:12:08;;;;;;;1999.90;999.90;;;13.10;99.90;;;;;;4919088;29;20099;-75
2022/05/21 03:14:33;;;;;;;1999.90;999.90;;;13.10;99.90;;;;;;4920342;29;20134;-75
2022/05/21 03:16:59;;;;;;;1999.90;999.90;;;13.10;99.90;;;;;;4917190;29;20075;-75
2022/05/21 03:19:30;;;;;;;1999.90;999.90;;;13.10;99.90;;;;;;4916918;29;20028;-75
2022/05/21 03:21:57;;;;;;;1999.90;999.90;;;13.10;99.90;;;;;;4911785;29;20456;-75
2022/05/21 03:24:23;;;;;;;1999.90;999.90;;;13.10;99.90;;;;;;4912181;29;20123;-75
2022/05/21 03:26:49;;;;;;;1999.90;999.90;;;13.10;99.90;;;;;;4916178;29;20035;-75
2022/05/21 03:29:14;;;;;;;1999.90;999.90;;;13.10;99.90;;;;;;4916253;29;20028;-75
2022/05/21 03:31:40;;;;;;;1999.90;999.90;;;13.10;99.90;;;;;;4915570;29;20034;-75
2022/05/21 03:34:06;;;;;;;1999.90;999.90;;;13.10;99.90;;;;;;4917075;29;20099;-75
2022/05/21 03:36:32;;;;;;;1999.90;999.90;;;13.10;99.90;;;;;;4919860;29;20060;-75
2022/05/21 03:38:58;;;;;;;1999.90;999.90;;;13.10;99.90;;;;;;4930750;29;20526;-75
2022/05/21 03:41:24;;;;;;;1999.90;999.90;;;13.10;99.90;;;;;;4919777;29;20403;-75
2022/05/21 03:43:50;;;;;;;1999.90;999.90;;;13.10;99.90;;;;;;4918508;29;20031;-75
2022/05/21 03:46:16;;;;;;;1999.90;999.90;;;13.00;99.90;;;;;;4922011;29;20024;-75
2022/05/21 03:48:42;;;;;;;1999.90;999.90;;;13.00;99.90;;;;;;4931447;29;20487;-75
2022/05/21 03:51:08;;;;;;;1999.90;999.90;;;13.00;99.90;;;;;;4918288;29;20024;-75
2022/05/21 03:53:34;;;;;;;1999.90;999.90;;;13.00;99.90;;;;;;4919671;29;20051;-75
2022/05/21 03:55:59;;;;;;;1999.90;999.90;;;13.00;99.90;;;;;;4921819;29;20510;-75
2022/05/21 03:58:26;;;;;;;1999.90;999.90;;;12.90;99.90;;;;;;4922096;29;20032;-75
2022/05/21 04:00:51;;;;;;;1999.90;999.90;;;12.90;99.90;;;;;;4929232;29;20107;-83
2022/05/21 04:03:17;;;;;;;1999.90;999.90;;;13.00;99.90;;;;;;4921101;29;20128;-75
2022/05/21 04:05:43;;;;;;;1999.90;999.90;;;12.90;99.90;;;;;;4917775;29;20028;-83
2022/05/21 04:08:09;;;;;;;1999.90;999.90;;;12.90;99.90;;;;;;4919358;29;20024;-75
2022/05/21 04:10:35;;;;;;;1999.90;999.90;;;12.90;99.90;;;;;;4919127;29;20036;-75
2022/05/21 04:13:01;;;;;;;1999.90;999.90;;;12.90;99.90;;;;;;4924235;29;20024;-75
2022/05/21 04:15:27;;;;;;;1999.90;999.90;;;12.90;99.90;;;;;;4919027;29;20065;-75
2022/05/21 04:17:56;;;;;;;1999.90;999.90;;;12.90;99.90;;;;;;4917903;29;20505;-75
2022/05/21 04:20:23;;;;;;;1999.90;999.90;;;12.90;99.90;;;;;;4918933;29;20111;-75
2022/05/21 04:22:49;;;;;;;1999.90;999.90;;;12.80;99.90;;;;;;4917874;29;20020;-75
2022/05/21 04:25:15;;;;;;;1999.90;999.90;;;12.80;99.90;;;;;;4919186;29;20115;-82
2022/05/21 04:27:42;;;;;;;1999.90;999.90;;;12.80;99.90;;;;;;4918779;29;20042;-75
2022/05/21 04:30:11;;;;;;;1999.90;999.90;;;12.80;99.90;;;;;;4918902;29;20032;-75
2022/05/21 04:32:37;;;;;;;1999.90;999.90;;;12.80;99.90;;;;;;4917953;29;20400;-75
2022/05/21 04:35:04;;;;;;;1999.90;999.90;;;12.80;99.90;;;;;;4918506;29;20030;-75
2022/05/21 04:37:29;;;;;;;1999.90;999.90;;;12.80;99.90;;;;;;4907279;29;20032;-75
2022/05/21 04:39:55;;;;;;;1999.90;999.90;;;12.80;99.90;;;;;;4924776;29;20028;-84
2022/05/21 04:42:21;;;;;;;1999.90;999.90;;;12.80;99.90;;;;;;4917079;29;20028;-75
2022/05/21 04:44:47;;;;;;;1999.90;999.90;;;12.70;99.90;;;;;;4918831;29;20050;-75
2022/05/21 04:47:12;;;;;;;1999.90;999.90;;;12.70;99.90;;;;;;4928236;29;20019;-75
2022/05/21 04:49:38;;;;;;;1999.90;999.90;;;12.80;99.90;;;;;;4925753;29;20494;-75
2022/05/21 04:52:04;;;;;;;1999.90;999.90;;;12.80;99.90;;;;;;4904757;29;20127;-83
2022/05/21 04:54:30;;;;;;;1999.90;999.90;;;12.80;99.90;;;;;;4917641;29;20055;-83
2022/05/21 04:56:56;;;;;;;1999.90;999.90;;;12.80;99.90;;;;;;4925355;29;20048;-75
2022/05/21 04:59:22;;;;;;;1999.90;999.90;;;12.80;99.90;;;;;;4918328;29;20031;-75
2022/05/21 05:01:47;;;;;;;1999.90;999.90;;;12.80;99.90;;;;;;4917006;29;20036;-83
2022/05/21 05:04:13;;;;;;;1999.90;999.90;;;12.80;99.90;;;;;;4918166;29;20031;-76
2022/05/21 05:06:39;;;;;;;1999.90;999.90;;;12.80;99.90;;;;;;4918166;29;20032;-75
2022/05/21 05:09:07;;;;;;;1999.90;999.90;;;12.80;99.90;;;;;;4918515;29;20509;-75
2022/05/21 05:11:33;;;;;;;1999.90;999.90;;;12.90;99.90;;;;;;4917966;29;20032;-75
2022/05/21 05:13:59;;;;;;;1999.90;999.90;;;12.90;99.90;;;;;;4923559;29;20058;-83
2022/05/21 05:16:25;;;;;;;1999.90;999.90;;;12.90;99.90;;;;;;4916585;29;20119;-75
2022/05/21 05:18:51;;;;;;;1999.90;999.90;;;13.00;99.90;;;;;;4917223;29;20031;-75
2022/05/21 05:21:16;;;;;;;1999.90;999.90;;;13.00;99.90;;;;;;4917513;29;20036;-75
2022/05/21 05:23:45;;;;;;;1999.90;999.90;;;13.00;99.90;;;;;;4918127;29;20020;-74
2022/05/21 05:26:11;;;;;;;1999.90;999.90;;;13.00;99.90;;;;;;4918101;29;20020;-76
2022/05/21 05:28:36;;;;;;;1999.90;999.90;;;13.00;99.90;;;;;;4917773;29;20024;-75
2022/05/21 05:31:02;;;;;;;1999.90;999.90;;;13.10;99.90;;;;;;4913963;29;20134;-83
2022/05/21 05:33:30;;;;;;;1999.90;999.90;;;13.10;99.90;;;;;;4909346;29;20472;-75
2022/05/21 05:35:55;;;;;;;1999.90;999.90;;;13.20;99.90;;;;;;4917185;29;20039;-74
2022/05/21 05:38:23;;;;;;;1999.90;999.90;;;13.20;99.90;;;;;;4926824;29;20027;-75
2022/05/21 05:40:51;;;;;;;1999.90;999.90;;;13.20;99.90;;;;;;4920444;29;20032;-75
2022/05/21 05:43:19;;;;;;;1999.90;999.90;;;13.30;99.90;;;;;;4916484;29;20104;-75
2022/05/21 05:45:47;;;;;;;1999.90;999.90;;;13.40;99.90;;;;;;4919920;29;20027;-75
2022/05/21 05:48:12;;;;;;;1999.90;999.90;;;13.50;99.90;;;;;;4934895;29;20030;-84
2022/05/21 05:50:38;;;;;;;1999.90;999.90;;;13.60;99.90;;;;;;4917776;29;20396;-75
2022/05/21 05:53:06;;;;;;;1999.90;999.90;;;13.60;99.90;;;;;;4917921;29;20475;-75
2022/05/21 05:55:33;;;;;;;1999.90;999.90;;;13.80;99.90;;;;;;4917523;29;20047;-75
2022/05/21 05:57:59;;;;;;;1999.90;999.90;;;13.90;99.90;;;;;;4923571;29;20032;-83
2022/05/21 06:00:26;;;;;;;1999.90;999.90;;;14.00;99.90;;;;;;4905054;29;20056;-75
2022/05/21 06:02:58;;;;;;;1999.90;999.90;;;14.10;99.90;;;;;;4917803;29;20032;-75
2022/05/21 06:05:24;;;;;;;1999.90;999.90;;;14.20;99.90;;;;;;4917312;29;20030;-84
2022/05/21 06:07:53;;;;;;;1999.90;999.90;;;14.30;99.90;;;;;;4915877;29;20028;-75
2022/05/21 06:10:23;;;;;;;1999.90;999.90;;;14.40;99.90;;;;;;4906004;29;20032;-75
2022/05/21 06:12:49;;;;;;;1999.90;999.90;;;14.60;99.90;;;;;;4923231;29;20380;-84
2022/05/21 06:15:16;;;;;;;1999.90;999.90;;;14.70;99.90;;;;;;4917206;29;20031;-75
2022/05/21 06:17:43;;;;;;;1999.90;999.90;;;14.80;99.90;;;;;;4916208;29;20067;-75
2022/05/21 06:20:14;;;;;;;1999.90;999.90;;;15.00;99.90;;;;;;4916877;29;20028;-75
2022/05/21 06:22:40;;;;;;;1999.90;999.90;;;15.10;99.90;;;;;;4917019;29;20164;-75
2022/05/21 06:25:06;;;;;;;1999.90;999.90;;;15.20;99.90;;;;;;4916914;29;20028;-75
2022/05/21 06:27:32;;;;;;;1999.90;999.90;;;15.40;99.90;;;;;;4915926;29;20024;-75
2022/05/21 06:29:58;;;;;;;1999.90;999.90;;;15.60;99.90;;;;;;4916322;29;20095;-84
2022/05/21 06:32:24;;;;;;;1999.90;999.90;;;15.70;99.90;;;;;;4915703;29;20088;-75
2022/05/21 06:34:49;;;;;;;1999.90;999.90;;;16.00;99.90;;;;;;4907970;29;20020;-75
2022/05/21 06:37:15;;;;;;;1999.90;999.90;;;16.10;99.90;;;;;;4913436;29;20436;-75
2022/05/21 06:39:44;;;;;;;1999.90;999.90;;;16.30;99.90;;;;;;4927164;29;20068;-84
2022/05/21 06:42:11;;;;;;;1999.90;999.90;;;16.40;99.90;;;;;;4915430;29;20088;-75
2022/05/21 06:44:38;;;;;;;1999.90;999.90;;;16.60;99.90;;;;;;4915978;29;20020;-75
2022/05/21 06:47:04;;;;;;;1999.90;999.90;;;16.80;99.90;;;;;;4922740;29;20066;-84
2022/05/21 06:49:30;;;;;;;1999.90;999.90;;;17.00;99.90;;;;;;4926657;29;20456;-85
2022/05/21 06:51:58;;;;;;;1999.90;999.90;;;17.10;99.90;;;;;;4917202;29;20088;-85
2022/05/21 06:54:25;;;;;;;1999.90;999.90;;;17.20;99.90;;;;;;4915765;29;20458;-84
2022/05/21 06:56:51;;;;;;;1999.90;999.90;;;17.30;99.90;;;;;;4915272;29;20143;-85
2022/05/21 06:59:18;;;;;;;1999.90;999.90;;;17.50;99.90;;;;;;4916932;29;20550;-85
2022/05/21 07:01:43;;;;;;;1999.90;999.90;;;17.60;99.90;;;;;;4915813;29;20040;-85
2022/05/21 07:04:09;;;;;;;1999.90;999.90;;;17.70;99.90;;;;;;4915493;29;20111;-84
2022/05/21 07:09:21;;;;;;;1999.90;999.90;;;18.00;99.90;;;;;;4917252;29;20035;-85
2022/05/21 07:11:49;;;;;;;1999.90;999.90;;;18.10;99.90;;;;;;4920490;29;20028;-84
2022/05/21 07:14:15;;;;;;;1999.90;999.90;;;18.30;99.90;;;;;;4913101;29;20032;-75
2022/05/21 07:16:41;;;;;;;1999.90;999.90;;;18.60;99.90;;;;;;4920448;29;20514;-75
2022/05/21 07:19:07;;;;;;;1999.90;999.90;;;18.80;99.90;;;;;;4920230;29;20119;-77
2022/05/21 07:21:33;;;;;;;1999.90;999.90;;;19.00;99.90;;;;;;4918907;29;20119;-75
2022/05/21 07:23:59;;;;;;;1999.90;999.90;;;19.20;99.90;;;;;;4918894;29;20127;-84
2022/05/21 07:26:25;;;;;;;1999.90;999.90;;;19.40;99.90;;;;;;4920541;29;20036;-84
2022/05/21 07:28:51;;;;;;;1999.90;999.90;;;19.60;99.90;;;;;;4920032;29;20024;-75
2022/05/21 07:31:17;;;;;;;1999.90;999.90;;;19.90;99.90;;;;;;4919569;29;20032;-76
2022/05/21 07:33:43;;;;;;;1999.90;999.90;;;20.20;99.90;;;;;;4920178;29;20028;-75
2022/05/21 07:36:09;;;;;;;1999.90;999.90;;;20.60;99.90;;;;;;4918269;29;20043;-76
2022/05/21 07:38:35;;;;;;;1999.90;999.90;;;22.20;99.90;;;;;;4919842;29;20024;-76
2022/05/21 07:41:01;;;;;;;1999.90;999.90;;;23.70;99.90;;;;;;4918137;29;20039;-84
2022/05/21 07:43:30;;;;;;;1999.90;999.90;;;25.00;99.90;;;;;;4919893;29;20500;-76
2022/05/21 07:46:00;;;;;;;1999.90;999.90;;;25.80;99.50;;;;;;4922161;29;20048;-76
2022/05/21 07:48:26;;;;;;;1999.90;999.90;;;26.60;98.20;;;;;;4932634;29;20062;-85
2022/05/21 07:51:00;;;;;;;1999.90;999.90;;;27.30;97.30;;;;;;4920236;29;20043;-84
2022/05/21 07:53:29;;;;;;;1999.90;999.90;;;27.60;96.50;;;;;;4906997;29;20029;-76
2022/05/21 07:55:56;;;;;;;1999.90;999.90;;;27.90;96.20;;;;;;4922470;29;20047;-85
2022/05/21 07:58:24;;;;;;;1999.90;999.90;;;28.10;95.50;;;;;;4921915;29;20035;-77
2022/05/21 08:00:51;;;;;;;1999.90;999.90;;;28.40;95.40;;;;;;4930763;29;20058;-75
2022/05/21 08:03:16;;;;;;;1999.90;999.90;;;28.90;94.70;;;;;;4922809;29;20035;-85
2022/05/21 08:05:43;;;;;;;1999.90;999.90;;;29.10;94.40;;;;;;4919993;29;20032;-78
2022/05/21 08:08:09;;;;;;;1999.90;999.90;;;29.90;94.00;;;;;;4919620;29;20032;-79
2022/05/21 08:10:37;;;;;;;1999.90;999.90;;;30.10;93.50;;;;;;4918665;29;20032;-87
2022/05/21 08:13:03;;;;;;;1999.90;999.90;;;30.40;93.20;;;;;;4927384;29;20167;-79
2022/05/21 08:15:29;;;;;;;1999.90;999.90;;;30.60;93.00;;;;;;4919311;29;20110;-88
2022/05/21 08:17:56;;;;;;;1999.90;999.90;;;30.70;92.70;;;;;;4917868;29;20404;-88
2022/05/21 08:20:22;;;;;;;1999.90;999.90;;;30.80;92.50;;;;;;4919075;29;20550;-78
2022/05/21 08:28:16;;;;;;;1999.90;999.90;;;31.70;91.80;;;;;;4908822;29;20039;-87
2022/05/21 08:30:44;;;;;;;1999.90;999.90;;;32.10;91.30;;;;;;4916084;29;20061;-78
2022/05/21 08:33:10;;;;;;;1999.90;999.90;;;32.60;91.30;;;;;;4917791;29;20038;-88
2022/05/21 08:35:40;;;;;;;1999.90;999.90;;;32.30;91.00;;;;;;4920261;29;20522;-79
2022/05/21 08:38:07;;;;;;;1999.90;999.90;;;32.80;90.70;;;;;;4926042;29;20032;-87
2022/05/21 08:40:50;;;;;;;1999.90;999.90;;;32.70;90.20;;;;;;4924201;29;20036;-86
2022/05/21 08:43:24;;;;;;;1999.90;999.90;;;33.00;90.10;;;;;;4918517;29;20020;-87
2022/05/21 08:46:26;;;;;;;1999.90;999.90;;;33.10;90.30;;;;;;4920951;29;20166;-88
2022/05/21 08:49:08;;;;;;;1999.90;999.90;;;33.90;89.90;;;;;;4929915;29;20099;-78
2022/05/21 08:51:42;;;;;;;1999.90;999.90;;;33.70;89.70;;;;;;4915011;29;20040;-87
2022/05/21 08:54:11;;;;;;;1999.90;999.90;;;33.70;89.20;;;;;;4918708;29;20088;-87
2022/05/21 08:56:37;;;;;;;1999.90;999.90;;;33.90;88.50;;;;;;4926296;29;20159;-77
2022/05/21 08:59:06;;;;;;;1999.90;999.90;;;33.90;88.40;;;;;;4913932;29;20036;-85
2022/05/21 09:01:44;;;;;;;1999.90;999.90;;;34.50;88.10;;;;;;4931156;29;20035;-76
2022/05/21 09:04:12;;;;;;;1999.90;999.90;;;34.60;87.30;;;;;;4918418;29;20043;-77
2022/05/21 09:06:53;;;;;;;1999.90;999.90;;;34.80;86.40;;;;;;4917470;29;20029;-77
2022/05/21 09:09:36;;;;;;;1999.90;999.90;;;34.70;87.10;;;;;;4905443;29;20028;-77
2022/05/21 09:12:20;;;;;;;1999.90;999.90;;;34.60;86.10;;;;;;4919361;29;20392;-85
2022/05/21 09:14:52;;;;;;;1999.90;999.90;;;34.60;86.20;;;;;;4933573;29;20395;-86
2022/05/21 09:17:21;;;;;;;1999.90;999.90;;;35.00;85.90;;;;;;4917409;29;20036;-86
2022/05/21 09:19:58;;;;;;;1999.90;999.90;;;34.70;85.50;;;;;;4917556;29;20078;-77
2022/05/21 09:22:25;;;;;;;1999.90;999.90;;;34.70;84.90;;;;;;4917387;29;20443;-85
2022/05/21 09:24:57;;;;;;;1999.90;999.90;;;35.30;85.20;;;;;;4917128;29;20115;-86
2022/05/21 09:27:33;;;;;;;1999.90;999.90;;;35.60;84.40;;;;;;4917589;29;20511;-76
2022/05/21 09:30:11;;;;;;;1999.90;999.90;;;35.60;83.60;;;;;;4919463;29;20039;-77
2022/05/21 09:32:37;;;;;;;1999.90;999.90;;;35.30;83.10;;;;;;4917225;29;20088;-85
2022/05/21 09:35:12;;;;;;;1999.90;999.90;;;35.40;83.60;;;;;;4916439;29;20020;-85
2022/05/21 09:37:39;;;;;;;1999.90;999.90;;;35.60;81.90;;;;;;4912148;29;20028;-85
2022/05/21 09:40:25;;;;;;;1999.90;999.90;;;35.70;81.60;;;;;;4923685;29;20116;-76
2022/05/21 09:45:37;;;;;;;1999.90;999.90;;;35.40;81.30;;;;;;4920154;29;20043;-77
2022/05/21 09:48:06;;;;;;;1999.90;999.90;;;35.70;79.40;;;;;;4924470;29;20029;-77
2022/05/21 09:50:54;;;;;;;1999.90;999.90;;;35.80;80.20;;;;;;4917681;29;20132;-83
2022/05/21 09:53:27;;;;;;;1999.90;999.90;;;35.80;81.40;;;;;;4916416;29;20032;-85
2022/05/21 09:56:03;;;;;;;1999.90;999.90;;;36.00;79.70;;;;;;4913762;29;20043;-80
2022/05/21 09:58:32;;;;;;;1999.90;999.90;;;35.80;79.40;;;;;;4919943;29;20087;-77
2022/05/21 10:00:58;;;;;;;1999.90;999.90;;;35.30;79.60;;;;;;4930797;28;20127;-78
2022/05/21 10:03:48;;;;;;;1999.90;999.90;;;35.50;78.30;;;;;;4919168;29;20052;-76
2022/05/21 10:06:34;;;;;;;1999.90;999.90;;;35.70;78.00;;;;;;4917590;29;20036;-77
2022/05/21 10:12:21;;;;;;;1999.90;999.90;;;35.80;79.30;;;;;;4909893;29;20115;-77
2022/05/21 10:14:53;;;;;;;1999.90;999.90;;;35.50;77.30;;;;;;4930536;29;20031;-77
2022/05/21 10:17:27;;;;;;;;;;;34.70;79.30;;;;;;4917622;29;20028;-84
2022/05/21 10:19:57;;;;;;;1999.90;999.90;;;34.50;79.20;;;;;;4917259;29;20374;-84
2022/05/21 10:22:29;;;;;;;1999.90;999.90;;;34.40;79.10;;;;;;4917540;29;20087;-77
2022/05/21 10:25:15;;;;;;;1999.90;999.90;;;34.50;79.30;;;;;;4917405;29;20024;-84
2022/05/21 10:28:26;;;;;;;1999.90;999.90;;;34.40;79.40;;;;;;4917625;29;20159;-77
2022/05/21 10:31:29;;;;;;;1999.90;999.90;;;34.30;77.80;;;;;;4900439;29;20044;-76
2022/05/21 10:34:18;;;;;;;1999.90;999.90;;;34.90;79.40;;;;;;4917475;29;20032;-85
2022/05/21 10:37:02;;;;;;;1999.90;999.90;;;35.30;79.00;;;;;;4915599;29;20039;-76
2022/05/21 10:39:53;;;;;;;1999.90;999.90;;;35.50;77.30;;;;;;4904756;29;20082;-76
2022/05/21 10:42:27;;;;;;;1999.90;999.90;;;35.50;77.60;;;;;;4918527;29;20379;-77
2022/05/21 10:45:30;;;;;;;1999.90;999.90;;;35.50;76.80;;;;;;4918602;29;20530;-85
2022/05/21 10:48:20;;;;;;;1999.90;999.90;;;35.40;78.30;;;;;;4923418;29;20487;-77
2022/05/21 10:51:00;;;;;;;1999.90;999.90;;;35.30;77.60;;;;;;4921161;29;20124;-77
2022/05/21 10:53:44;;;;;;;1999.90;999.90;;;35.20;78.00;;;;;;4920646;29;20048;-85
2022/05/21 10:56:31;;;;;;;1999.90;999.90;;;35.10;78.60;;;;;;4920565;29;20514;-77
2022/05/21 10:59:06;;;;;;;1999.90;999.90;;;35.00;78.00;;;;;;4908018;29;20554;-85
2022/05/21 11:01:49;;;;;;;1999.90;999.90;;;35.00;77.90;;;;;;4933144;29;20156;-77
2022/05/21 11:04:53;;;;;;;1999.90;999.90;;;35.40;77.70;;;;;;4921311;29;20020;-85
2022/05/21 11:07:37;;;;;;;1999.90;999.90;;;35.30;76.80;;;;;;4920628;29;20494;-77
2022/05/21 11:10:11;;;;;;;1999.90;999.90;;;35.40;75.70;;;;;;4920567;29;20052;-77
2022/05/21 11:13:17;;;;;;;1999.90;999.90;;;35.50;77.10;;;;;;4920544;29;20102;-77
2022/05/21 11:15:56;;;;;;;1999.90;999.90;;;35.30;76.80;;;;;;4911623;29;20040;-84
2022/05/21 11:18:46;;;;;;;1999.90;999.90;;;35.70;77.70;;;;;;4918794;29;20028;-77
2022/05/21 11:21:36;;;;;;;1999.90;999.90;;;36.00;76.20;;;;;;4920385;29;20032;-77
2022/05/21 11:24:36;;;;;;;1999.90;999.90;;;35.40;76.20;;;;;;4919133;29;20066;-77
2022/05/21 11:27:18;;;;;;;1999.90;999.90;;;35.90;77.00;;;;;;4920315;29;20127;-85
2022/05/21 11:30:11;;;;;;;1999.90;999.90;;;35.50;76.00;;;;;;4914271;29;20063;-76
2022/05/21 11:38:49;;;;;;;1999.90;999.90;;;35.70;76.10;;;;;;4931841;29;20513;-84
2022/05/21 11:41:29;;;;;;;1999.90;999.90;;;35.70;76.00;;;;;;4908571;29;20086;-84
2022/05/21 11:46:50;;;;;;;1999.90;999.90;;;34.10;76.10;;;;;;4928122;29;20443;-77
2022/05/21 11:49:42;;;;;;;1999.90;999.90;;;34.00;76.80;;;;;;4938541;29;20036;-77
2022/05/21 11:52:27;;;;;;;1999.90;999.90;;;33.90;77.70;;;;;;4915726;29;20039;-84
2022/05/21 11:55:11;;;;;;;1999.90;999.90;;;33.90;76.50;;;;;;4919276;29;20102;-76
2022/05/21 11:57:42;;;;;;;1999.90;999.90;;;33.80;77.60;;;;;;4919876;29;20042;-77
2022/05/21 12:00:08;;;;;;;1999.90;999.90;;;34.00;78.10;;;;;;4923396;29;20036;-77
2022/05/21 12:02:38;;;;;;;1999.90;999.90;;;34.30;77.20;;;;;;4942431;29;20044;-77
2022/05/21 12:05:11;;;;;;;1999.90;999.90;;;34.60;76.10;;;;;;4919390;29;20416;-84
2022/05/21 12:07:46;;;;;;;1999.90;999.90;;;34.90;76.30;;;;;;4919588;29;20392;-77
2022/05/21 12:10:21;;;;;;;1999.90;999.90;;;35.30;76.70;;;;;;4906490;29;20028;-77
2022/05/21 12:13:02;;;;;;;1999.90;999.90;;;35.10;75.50;;;;;;4925057;29;20095;-85
2022/05/21 12:15:54;;;;;;;1999.90;999.90;;;35.20;75.60;;;;;;4918953;29;20072;-85
2022/05/21 12:18:33;;;;;;;1999.90;999.90;;;35.00;76.20;;;;;;4905421;29;20115;-76
2022/05/21 12:21:00;;;;;;;1999.90;999.90;;;34.50;76.30;;;;;;4920511;29;20032;-84
2022/05/21 12:23:31;;;;;;;1999.90;999.90;;;34.60;76.10;;;;;;4918266;29;20060;-84
2022/05/21 12:26:25;;;;;;;1999.90;999.90;;;34.80;76.60;;;;;;4919026;29;20063;-77
2022/05/21 12:29:06;;;;;;;1999.90;999.90;;;34.80;77.00;;;;;;4918782;29;20036;-77
2022/05/21 12:31:44;;;;;;;1999.90;999.90;;;35.00;77.40;;;;;;4908568;29;20024;-77
2022/05/21 12:34:22;;;;;;;1999.90;999.90;;;35.30;76.70;;;;;;4905646;29;20036;-77
2022/05/21 12:36:55;;;;;;;1999.90;999.90;;;35.30;76.70;;;;;;4920919;29;20103;-77
2022/05/21 12:39:44;;;;;;;1999.90;999.90;;;34.40;76.60;;;;;;4927922;29;20036;-85
2022/05/21 12:42:26;;;;;;;1999.90;999.90;;;34.50;77.70;;;;;;4918892;29;20032;-84
2022/05/21 12:44:53;;;;;;;1999.90;999.90;;;34.30;78.20;;;;;;4912749;29;20020;-77
2022/05/21 12:47:41;;;;;;;1999.90;999.90;;;33.90;78.40;;;;;;4918402;29;20020;-85
2022/05/21 12:50:19;;;;;;;1999.90;999.90;;;34.10;78.80;;;;;;4914083;29;20475;-77
2022/05/21 12:52:59;;;;;;;1999.90;999.90;;;33.80;77.80;;;;;;4920210;29;20032;-77